Terminal Aerodrome Forecast
Issued by NWS

Home | Current Version | Previous Version | Graphics & Text | Print | Product List | Glossary On
Versions: 1 2 3 4 5 6 7 8 9 10 11 12 13 14 15 16 17 18
000
FTUS43 KTOP 020709 AAB
TAFFOE
TAF AMD
KFOE 020709Z 0207/0306 09006KT P6SM BKN016
     FM021100 02006KT 5SM BR BKN012
     FM021700 03010KT P6SM VCTS FEW008 BKN018CB=

USA.gov is the U.S. government's official web portal to all federal, state and local government web resources and services.